This is the latest recevied weather packets stored in our database for station/object KP4CRN. If no packets are shown the sender has not sent any weather packets the latest 1 day(s).
| Time | Temp. | Humidity | Pressure | Rain* | Wind** | Luminosity | Snow |
|---|---|---|---|---|---|---|---|
| 1778036178 | 26.11° C | 89% | 1018.2 hPa | 0 mm | - | 0 W/m² | - |
| 1778035571 | 26.11° C | 89% | 1018.3 hPa | 0 mm | - | 0 W/m² | - |
| 1778035267 | 26.67° C | 88% | 1018.3 hPa | 0 mm | - | 0 W/m² | - |
| 1778034661 | 26.11° C | 88% | 1018.2 hPa | 0 mm | - | 0 W/m² | - |
| 1778034056 | 26.67° C | 88% | 1018.2 hPa | 0 mm | - | 0 W/m² | - |
| 1778033753 | 26.67° C | 88% | 1018.2 hPa | 0 mm | - | 0 W/m² | - |
| 1778033147 | 26.67° C | 88% | 1018.2 hPa | 0 mm | - | 0 W/m² | - |
| 1778032845 | 26.67° C | 87% | 1018 hPa | 0 mm | - | 0 W/m² | - |
| 1778032239 | 26.67° C | 87% | 1018 hPa | 0 mm | - | 0 W/m² | - |
| 1778031331 | 26.67° C | 86% | 1018.2 hPa | 0 mm | - | 0 W/m² | - |
| 1778031027 | 26.67° C | 86% | 1018 hPa | 0 mm | - | 0 W/m² | - |
| 1778030723 | 26.67° C | 86% | 1018.2 hPa | 0 mm | - | 0 W/m² | - |
| 1778030420 | 26.67° C | 85% | 1017.9 hPa | 0 mm | - | 0 W/m² | - |
| 1778030118 | 26.67° C | 85% | 1017.9 hPa | 0 mm | - | 0 W/m² | - |
| 1778029814 | 27.22° C | 84% | 1017.8 hPa | 0 mm | - | 0 W/m² | - |
| 1778029508 | 27.22° C | 84% | 1017.9 hPa | 0 mm | - | 0 W/m² | - |
| 1778028596 | 27.22° C | 83% | 1017.8 hPa | 0 mm | - | 0 W/m² | - |
| 1778027687 | 27.22° C | 83% | 1017.7 hPa | 0 mm | - | 0 W/m² | - |
| 1778027383 | 27.22° C | 82% | 1017.7 hPa | 0 mm | - | 0 W/m² | - |
| 1778026775 | 27.78° C | 81% | 1017.7 hPa | 0 mm | - | 0 W/m² | - |
| 1778025867 | 27.78° C | 79% | 1017.5 hPa | 0 mm | - | 0 W/m² | - |
| 1778025262 | 28.33° C | 78% | 1017.4 hPa | 0 mm | - | 0 W/m² | - |
| 1778024656 | 28.33° C | 77% | 1017.3 hPa | 0 mm | - | 0 W/m² | - |
| 1778020111 | 30° C | 71% | 1016.7 hPa | 0 mm | - | 18 W/m² | - |
| 1778016781 | 31.11° C | 65% | 1015.9 hPa | 0 mm | - | 117 W/m² | - |
* Rain latest hour (hover to see other rain measurements)
** Current wind speed in m/s (hover to see current wind gust speed)